sensor_id;sensor_type;location;lat;lon;timestamp;pressure;altitude;pressure_sealevel;temperature;humidity
51289;BME280;37372;52.294;5.152;2024-03-25T00:01:38;100818.41;;;3.63;85.91
51289;BME280;37372;52.294;5.152;2024-03-25T00:04:03;100817.31;;;3.57;86.07
51289;BME280;37372;52.294;5.152;2024-03-25T00:06:29;100822.41;;;3.54;86.11
51289;BME280;37372;52.294;5.152;2024-03-25T00:09:00;100822.31;;;3.50;87.18
51289;BME280;37372;52.294;5.152;2024-03-25T00:11:25;100820.41;;;3.45;87.37
51289;BME280;37372;52.294;5.152;2024-03-25T00:13:51;100808.97;;;3.38;87.00
51289;BME280;37372;52.294;5.152;2024-03-25T00:16:16;100812.88;;;3.25;87.14
51289;BME280;37372;52.294;5.152;2024-03-25T00:18:41;100829.78;;;3.14;87.33
51289;BME280;37372;52.294;5.152;2024-03-25T00:21:07;100823.63;;;3.10;87.79
51289;BME280;37372;52.294;5.152;2024-03-25T00:23:32;100820.97;;;3.09;87.52
51289;BME280;37372;52.294;5.152;2024-03-25T00:25:57;100822.63;;;3.07;88.15
51289;BME280;37372;52.294;5.152;2024-03-25T00:28:27;100814.81;;;3.05;88.74
51289;BME280;37372;52.294;5.152;2024-03-25T00:30:52;100813.88;;;3.03;88.47
51289;BME280;37372;52.294;5.152;2024-03-25T00:33:17;100817.19;;;2.99;88.48
51289;BME280;37372;52.294;5.152;2024-03-25T00:35:43;100812.72;;;2.95;88.74
51289;BME280;37372;52.294;5.152;2024-03-25T00:38:11;100816.97;;;2.93;89.50
51289;BME280;37372;52.294;5.152;2024-03-25T00:40:37;100812.50;;;2.89;89.40
51289;BME280;37372;52.294;5.152;2024-03-25T00:43:02;100800.31;;;2.86;89.73
51289;BME280;37372;52.294;5.152;2024-03-25T00:45:28;100799.28;;;2.81;89.16
51289;BME280;37372;52.294;5.152;2024-03-25T00:47:57;100806.09;;;2.77;89.79
51289;BME280;37372;52.294;5.152;2024-03-25T00:50:28;100809.34;;;2.72;89.80
51289;BME280;37372;52.294;5.152;2024-03-25T00:52:53;100807.53;;;2.69;89.88
51289;BME280;37372;52.294;5.152;2024-03-25T00:55:27;100806.56;;;2.65;90.00
51289;BME280;37372;52.294;5.152;2024-03-25T00:57:56;100803.97;;;2.65;89.85
51289;BME280;37372;52.294;5.152;2024-03-25T01:00:21;100802.16;;;2.63;89.65
51289;BME280;37372;52.294;5.152;2024-03-25T01:02:50;100811.47;;;2.58;89.61
51289;BME280;37372;52.294;5.152;2024-03-25T01:05:15;100813.94;;;2.55;90.42
51289;BME280;37372;52.294;5.152;2024-03-25T01:07:41;100821.59;;;2.52;90.55
51289;BME280;37372;52.294;5.152;2024-03-25T01:10:07;100812.06;;;2.50;90.35
51289;BME280;37372;52.294;5.152;2024-03-25T01:12:32;100810.09;;;2.43;89.90
51289;BME280;37372;52.294;5.152;2024-03-25T01:14:57;100819.22;;;2.33;89.54
51289;BME280;37372;52.294;5.152;2024-03-25T01:17:23;100814.94;;;2.34;90.60
51289;BME280;37372;52.294;5.152;2024-03-25T01:19:51;100814.91;;;2.32;90.25
51289;BME280;37372;52.294;5.152;2024-03-25T01:22:17;100817.69;;;2.39;90.96
51289;BME280;37372;52.294;5.152;2024-03-25T01:24:42;100811.88;;;2.44;90.81
51289;BME280;37372;52.294;5.152;2024-03-25T01:27:08;100815.44;;;2.48;90.76
51289;BME280;37372;52.294;5.152;2024-03-25T01:29:33;100819.91;;;2.52;90.85
51289;BME280;37372;52.294;5.152;2024-03-25T01:31:59;100811.25;;;2.52;90.75
51289;BME280;37372;52.294;5.152;2024-03-25T01:34:25;100820.03;;;2.55;90.77
51289;BME280;37372;52.294;5.152;2024-03-25T01:36:51;100824.19;;;2.52;90.98
51289;BME280;37372;52.294;5.152;2024-03-25T01:39:17;100824.09;;;2.48;90.90
51289;BME280;37372;52.294;5.152;2024-03-25T01:41:49;100821.56;;;2.50;91.16
51289;BME280;37372;52.294;5.152;2024-03-25T01:44:18;100825.78;;;2.48;91.15
51289;BME280;37372;52.294;5.152;2024-03-25T01:46:49;100825.94;;;2.51;91.49
51289;BME280;37372;52.294;5.152;2024-03-25T01:49:16;100815.44;;;2.48;91.17
51289;BME280;37372;52.294;5.152;2024-03-25T01:51:41;100815.50;;;2.49;91.30
51289;BME280;37372;52.294;5.152;2024-03-25T01:54:08;100813.84;;;2.52;91.49
51289;BME280;37372;52.294;5.152;2024-03-25T01:56:34;100817.16;;;2.47;90.93
51289;BME280;37372;52.294;5.152;2024-03-25T01:59:01;100821.38;;;2.45;91.67
51289;BME280;37372;52.294;5.152;2024-03-25T02:01:28;100824.09;;;2.48;91.65
51289;BME280;37372;52.294;5.152;2024-03-25T02:03:55;100821.66;;;2.53;91.60
51289;BME280;37372;52.294;5.152;2024-03-25T02:06:21;100825.44;;;2.61;91.64
51289;BME280;37372;52.294;5.152;2024-03-25T02:08:48;100822.31;;;2.72;91.40
51289;BME280;37372;52.294;5.152;2024-03-25T02:11:18;100817.44;;;2.81;91.79
51289;BME280;37372;52.294;5.152;2024-03-25T02:13:45;100827.44;;;2.94;92.23
51289;BME280;37372;52.294;5.152;2024-03-25T02:16:10;100818.97;;;3.00;91.59
51289;BME280;37372;52.294;5.152;2024-03-25T02:18:35;100828.69;;;3.07;91.06
51289;BME280;37372;52.294;5.152;2024-03-25T02:21:02;100831.47;;;3.12;90.91
51289;BME280;37372;52.294;5.152;2024-03-25T02:23:27;100824.75;;;3.19;91.20
51289;BME280;37372;52.294;5.152;2024-03-25T02:25:53;100830.97;;;3.24;90.74
51289;BME280;37372;52.294;5.152;2024-03-25T02:28:21;100829.44;;;3.29;90.61
51289;BME280;37372;52.294;5.152;2024-03-25T02:30:51;100827.88;;;3.34;90.99
51289;BME280;37372;52.294;5.152;2024-03-25T02:33:17;100821.00;;;3.36;90.79
51289;BME280;37372;52.294;5.152;2024-03-25T02:35:46;100822.66;;;3.34;90.48
51289;BME280;37372;52.294;5.152;2024-03-25T02:38:12;100826.00;;;3.30;90.55
51289;BME280;37372;52.294;5.152;2024-03-25T02:40:38;100814.59;;;3.25;90.29
51289;BME280;37372;52.294;5.152;2024-03-25T02:43:04;100834.28;;;3.18;89.74
51289;BME280;37372;52.294;5.152;2024-03-25T02:45:33;100823.69;;;3.12;89.90
51289;BME280;37372;52.294;5.152;2024-03-25T02:47:58;100825.28;;;3.08;89.52
51289;BME280;37372;52.294;5.152;2024-03-25T02:50:23;100819.00;;;3.02;90.11
51289;BME280;37372;52.294;5.152;2024-03-25T02:52:49;100820.72;;;3.01;89.69
51289;BME280;37372;52.294;5.152;2024-03-25T02:55:15;100817.06;;;2.94;89.70
51289;BME280;37372;52.294;5.152;2024-03-25T02:57:43;100822.25;;;2.94;90.13
51289;BME280;37372;52.294;5.152;2024-03-25T03:00:09;100820.59;;;2.98;90.14
51289;BME280;37372;52.294;5.152;2024-03-25T03:02:35;100817.41;;;3.05;90.28
51289;BME280;37372;52.294;5.152;2024-03-25T03:05:00;100815.72;;;3.07;90.73
51289;BME280;37372;52.294;5.152;2024-03-25T03:07:26;100810.66;;;3.10;89.87
51289;BME280;37372;52.294;5.152;2024-03-25T03:09:51;100805.56;;;3.13;90.21
51289;BME280;37372;52.294;5.152;2024-03-25T03:12:16;100803.78;;;3.12;89.79
51289;BME280;37372;52.294;5.152;2024-03-25T03:14:42;100793.31;;;3.09;90.26
51289;BME280;37372;52.294;5.152;2024-03-25T03:17:07;100790.50;;;3.03;90.00
51289;BME280;37372;52.294;5.152;2024-03-25T03:19:33;100793.72;;;2.94;89.80
51289;BME280;37372;52.294;5.152;2024-03-25T03:21:58;100795.19;;;2.88;89.96
51289;BME280;37372;52.294;5.152;2024-03-25T03:24:25;100792.34;;;2.80;90.23
51289;BME280;37372;52.294;5.152;2024-03-25T03:26:51;100796.59;;;2.78;90.45
51289;BME280;37372;52.294;5.152;2024-03-25T03:29:17;100798.16;;;2.73;90.32
51289;BME280;37372;52.294;5.152;2024-03-25T03:31:43;100794.47;;;2.66;90.31
51289;BME280;37372;52.294;5.152;2024-03-25T03:34:09;100796.13;;;2.64;90.53
51289;BME280;37372;52.294;5.152;2024-03-25T03:36:34;100795.09;;;2.59;90.77
51289;BME280;37372;52.294;5.152;2024-03-25T03:39:00;100802.75;;;2.56;90.69
51289;BME280;37372;52.294;5.152;2024-03-25T03:41:29;100806.09;;;2.53;90.45
51289;BME280;37372;52.294;5.152;2024-03-25T03:43:57;100800.66;;;2.45;90.81
51289;BME280;37372;52.294;5.152;2024-03-25T03:46:26;100803.25;;;2.45;91.14
51289;BME280;37372;52.294;5.152;2024-03-25T03:48:54;100803.91;;;2.40;90.89
51289;BME280;37372;52.294;5.152;2024-03-25T03:51:20;100801.03;;;2.32;90.26
51289;BME280;37372;52.294;5.152;2024-03-25T03:53:46;100797.31;;;2.24;90.34
51289;BME280;37372;52.294;5.152;2024-03-25T03:56:11;100794.63;;;2.21;90.59
51289;BME280;37372;52.294;5.152;2024-03-25T03:58:37;100784.97;;;2.16;90.61
51289;BME280;37372;52.294;5.152;2024-03-25T04:01:14;100783.06;;;2.12;91.18
51289;BME280;37372;52.294;5.152;2024-03-25T04:03:39;100782.13;;;2.10;90.61
51289;BME280;37372;52.294;5.152;2024-03-25T04:06:12;100779.38;;;2.06;90.83
51289;BME280;37372;52.294;5.152;2024-03-25T04:08:39;100778.31;;;2.00;90.47
51289;BME280;37372;52.294;5.152;2024-03-25T04:11:05;100776.44;;;1.96;91.11
51289;BME280;37372;52.294;5.152;2024-03-25T04:13:34;100785.06;;;1.95;90.81
51289;BME280;37372;52.294;5.152;2024-03-25T04:16:04;100785.81;;;1.93;90.81
51289;BME280;37372;52.294;5.152;2024-03-25T04:18:33;100783.09;;;1.90;90.73
51289;BME280;37372;52.294;5.152;2024-03-25T04:20:59;100784.72;;;1.86;90.65
51289;BME280;37372;52.294;5.152;2024-03-25T04:23:25;100779.34;;;1.81;90.85
51289;BME280;37372;52.294;5.152;2024-03-25T04:25:51;100785.25;;;1.77;90.88
51289;BME280;37372;52.294;5.152;2024-03-25T04:28:16;100785.00;;;1.71;90.68
51289;BME280;37372;52.294;5.152;2024-03-25T04:30:42;100792.06;;;1.75;90.85
51289;BME280;37372;52.294;5.152;2024-03-25T04:33:07;100791.91;;;1.71;90.51
51289;BME280;37372;52.294;5.152;2024-03-25T04:35:33;100785.81;;;1.70;90.87
51289;BME280;37372;52.294;5.152;2024-03-25T04:37:59;100790.06;;;1.68;91.02
51289;BME280;37372;52.294;5.152;2024-03-25T04:40:24;100790.88;;;1.67;91.02
51289;BME280;37372;52.294;5.152;2024-03-25T04:42:50;100789.13;;;1.66;90.58
51289;BME280;37372;52.294;5.152;2024-03-25T04:45:16;100789.16;;;1.67;91.29
51289;BME280;37372;52.294;5.152;2024-03-25T04:47:42;100795.25;;;1.68;91.00
51289;BME280;37372;52.294;5.152;2024-03-25T04:50:09;100787.47;;;1.68;91.39
51289;BME280;37372;52.294;5.152;2024-03-25T04:52:35;100788.28;;;1.67;91.21
51289;BME280;37372;52.294;5.152;2024-03-25T04:55:00;100795.13;;;1.65;91.15
51289;BME280;37372;52.294;5.152;2024-03-25T04:57:29;100785.56;;;1.62;90.10
51289;BME280;37372;52.294;5.152;2024-03-25T04:59:54;100793.16;;;1.59;90.50
51289;BME280;37372;52.294;5.152;2024-03-25T05:02:20;100786.97;;;1.56;90.50
51289;BME280;37372;52.294;5.152;2024-03-25T05:04:46;100786.13;;;1.55;91.08
51289;BME280;37372;52.294;5.152;2024-03-25T05:07:20;100791.25;;;1.54;90.83
51289;BME280;37372;52.294;5.152;2024-03-25T05:09:45;100794.63;;;1.53;90.85
51289;BME280;37372;52.294;5.152;2024-03-25T05:12:11;100793.81;;;1.54;91.16
51289;BME280;37372;52.294;5.152;2024-03-25T05:14:43;100798.28;;;1.58;90.72
51289;BME280;37372;52.294;5.152;2024-03-25T05:17:08;100807.06;;;1.61;90.97
51289;BME280;37372;52.294;5.152;2024-03-25T05:19:34;100802.06;;;1.66;90.89
51289;BME280;37372;52.294;5.152;2024-03-25T05:22:00;100814.19;;;1.67;90.80
51289;BME280;37372;52.294;5.152;2024-03-25T05:24:26;100806.59;;;1.72;90.99
51289;BME280;37372;52.294;5.152;2024-03-25T05:26:53;100814.44;;;1.73;90.58
51289;BME280;37372;52.294;5.152;2024-03-25T05:29:19;100817.88;;;1.74;90.19
51289;BME280;37372;52.294;5.152;2024-03-25T05:32:11;100823.00;;;1.72;90.44
51289;BME280;37372;52.294;5.152;2024-03-25T05:34:43;100819.75;;;1.78;91.12
51289;BME280;37372;52.294;5.152;2024-03-25T05:37:12;100812.34;;;1.87;91.40
51289;BME280;37372;52.294;5.152;2024-03-25T05:39:37;100812.69;;;1.96;90.88
51289;BME280;37372;52.294;5.152;2024-03-25T05:42:12;100812.06;;;2.02;91.55
51289;BME280;37372;52.294;5.152;2024-03-25T05:44:38;100815.75;;;2.09;91.40
51289;BME280;37372;52.294;5.152;2024-03-25T05:47:03;100809.69;;;2.08;90.72
51289;BME280;37372;52.294;5.152;2024-03-25T05:49:31;100808.75;;;2.06;90.87
51289;BME280;37372;52.294;5.152;2024-03-25T05:52:00;100806.13;;;2.05;90.80
51289;BME280;37372;52.294;5.152;2024-03-25T05:54:27;100801.81;;;2.05;90.96
51289;BME280;37372;52.294;5.152;2024-03-25T05:56:53;100802.69;;;2.06;91.11
51289;BME280;37372;52.294;5.152;2024-03-25T05:59:22;100805.34;;;2.07;90.94
51289;BME280;37372;52.294;5.152;2024-03-25T06:02:05;100809.69;;;2.08;90.84
51289;BME280;37372;52.294;5.152;2024-03-25T06:04:30;100805.50;;;2.12;90.44
51289;BME280;37372;52.294;5.152;2024-03-25T06:06:56;100809.19;;;2.19;91.13
51289;BME280;37372;52.294;5.152;2024-03-25T06:09:21;100802.44;;;2.22;91.41
51289;BME280;37372;52.294;5.152;2024-03-25T06:11:47;100802.53;;;2.25;91.22
51289;BME280;37372;52.294;5.152;2024-03-25T06:14:12;100796.53;;;2.26;90.84
51289;BME280;37372;52.294;5.152;2024-03-25T06:16:37;100804.50;;;2.31;91.29
51289;BME280;37372;52.294;5.152;2024-03-25T06:19:03;100801.19;;;2.35;91.30
51289;BME280;37372;52.294;5.152;2024-03-25T06:21:35;100797.03;;;2.40;90.91
51289;BME280;37372;52.294;5.152;2024-03-25T06:24:01;100801.59;;;2.47;90.54
51289;BME280;37372;52.294;5.152;2024-03-25T06:26:26;100799.38;;;2.58;90.80
51289;BME280;37372;52.294;5.152;2024-03-25T06:28:57;100783.28;;;2.67;90.48
51289;BME280;37372;52.294;5.152;2024-03-25T06:31:23;100797.53;;;2.80;90.30
51289;BME280;37372;52.294;5.152;2024-03-25T06:34:07;100788.31;;;2.88;90.21
51289;BME280;37372;52.294;5.152;2024-03-25T06:36:55;100791.03;;;2.93;89.72
51289;BME280;37372;52.294;5.152;2024-03-25T06:39:20;100787.78;;;2.98;89.70
51289;BME280;37372;52.294;5.152;2024-03-25T06:41:47;100792.28;;;3.04;90.24
51289;BME280;37372;52.294;5.152;2024-03-25T06:44:12;100792.63;;;3.15;90.25
51289;BME280;37372;52.294;5.152;2024-03-25T06:46:37;100790.19;;;3.20;89.61
51289;BME280;37372;52.294;5.152;2024-03-25T06:49:03;100781.78;;;3.27;89.81
51289;BME280;37372;52.294;5.152;2024-03-25T06:51:28;100777.69;;;3.35;89.98
51289;BME280;37372;52.294;5.152;2024-03-25T06:53:53;100781.31;;;3.40;90.21
51289;BME280;37372;52.294;5.152;2024-03-25T06:56:19;100775.47;;;3.46;89.58
51289;BME280;37372;52.294;5.152;2024-03-25T06:58:45;100785.13;;;3.52;89.82
51289;BME280;37372;52.294;5.152;2024-03-25T07:01:11;100773.16;;;3.55;89.72
51289;BME280;37372;52.294;5.152;2024-03-25T07:03:39;100781.16;;;3.63;90.35
51289;BME280;37372;52.294;5.152;2024-03-25T07:06:06;100784.72;;;3.66;90.00
51289;BME280;37372;52.294;5.152;2024-03-25T07:08:32;100777.03;;;3.70;89.77
51289;BME280;37372;52.294;5.152;2024-03-25T07:10:58;100780.63;;;3.75;90.01
51289;BME280;37372;52.294;5.152;2024-03-25T07:13:23;100779.06;;;3.80;89.75
51289;BME280;37372;52.294;5.152;2024-03-25T07:15:52;100777.44;;;3.83;89.57
51289;BME280;37372;52.294;5.152;2024-03-25T07:18:18;100784.53;;;3.89;89.55
51289;BME280;37372;52.294;5.152;2024-03-25T07:20:45;100778.66;;;3.95;89.42
51289;BME280;37372;52.294;5.152;2024-03-25T07:23:11;100781.34;;;3.99;88.54
51289;BME280;37372;52.294;5.152;2024-03-25T07:25:37;100786.81;;;4.09;89.34
51289;BME280;37372;52.294;5.152;2024-03-25T07:28:03;100790.44;;;4.14;89.01
51289;BME280;37372;52.294;5.152;2024-03-25T07:30:29;100795.09;;;4.26;88.51
51289;BME280;37372;52.294;5.152;2024-03-25T07:32:56;100793.50;;;4.31;88.00
51289;BME280;37372;52.294;5.152;2024-03-25T07:35:22;100795.50;;;4.40;88.38
51289;BME280;37372;52.294;5.152;2024-03-25T07:37:57;100793.97;;;4.48;87.69
51289;BME280;37372;52.294;5.152;2024-03-25T07:40:25;100793.41;;;4.58;88.26
51289;BME280;37372;52.294;5.152;2024-03-25T07:42:50;100792.66;;;4.64;87.19
51289;BME280;37372;52.294;5.152;2024-03-25T07:45:16;100790.22;;;4.69;87.29
51289;BME280;37372;52.294;5.152;2024-03-25T07:47:42;100793.03;;;4.78;86.71
51289;BME280;37372;52.294;5.152;2024-03-25T07:50:08;100795.81;;;4.86;86.50
51289;BME280;37372;52.294;5.152;2024-03-25T07:52:34;100792.66;;;4.97;85.41
51289;BME280;37372;52.294;5.152;2024-03-25T07:55:06;100798.81;;;5.01;85.66
51289;BME280;37372;52.294;5.152;2024-03-25T07:57:31;100793.03;;;5.13;87.08
51289;BME280;37372;52.294;5.152;2024-03-25T07:59:57;100800.03;;;5.15;85.37
51289;BME280;37372;52.294;5.152;2024-03-25T08:02:22;100794.91;;;5.19;85.73
51289;BME280;37372;52.294;5.152;2024-03-25T08:04:51;100799.47;;;5.27;84.52
51289;BME280;37372;52.294;5.152;2024-03-25T08:07:16;100803.94;;;5.33;83.83
51289;BME280;37372;52.294;5.152;2024-03-25T08:09:41;100800.00;;;5.49;84.33
51289;BME280;37372;52.294;5.152;2024-03-25T08:12:07;100797.47;;;5.54;84.18
51289;BME280;37372;52.294;5.152;2024-03-25T08:14:32;100795.72;;;5.53;83.43
51289;BME280;37372;52.294;5.152;2024-03-25T08:16:57;100803.63;;;5.56;82.85
51289;BME280;37372;52.294;5.152;2024-03-25T08:19:23;100808.94;;;5.62;82.08
51289;BME280;37372;52.294;5.152;2024-03-25T08:21:51;100810.03;;;5.70;82.58
51289;BME280;37372;52.294;5.152;2024-03-25T08:24:16;100814.56;;;5.80;82.30
51289;BME280;37372;52.294;5.152;2024-03-25T08:26:43;100811.19;;;5.84;80.46
51289;BME280;37372;52.294;5.152;2024-03-25T08:29:14;100821.88;;;5.95;80.24
51289;BME280;37372;52.294;5.152;2024-03-25T08:31:39;100810.50;;;5.93;80.63
51289;BME280;37372;52.294;5.152;2024-03-25T08:34:05;100806.53;;;6.09;79.46
51289;BME280;37372;52.294;5.152;2024-03-25T08:36:31;100824.13;;;6.20;80.44
51289;BME280;37372;52.294;5.152;2024-03-25T08:38:56;100815.38;;;6.18;77.51
51289;BME280;37372;52.294;5.152;2024-03-25T08:41:22;100806.81;;;6.22;77.41
51289;BME280;37372;52.294;5.152;2024-03-25T08:43:47;100813.84;;;6.26;76.85
51289;BME280;37372;52.294;5.152;2024-03-25T08:46:12;100803.38;;;6.24;76.45
51289;BME280;37372;52.294;5.152;2024-03-25T08:48:38;100803.47;;;6.30;76.60
51289;BME280;37372;52.294;5.152;2024-03-25T08:51:03;100807.03;;;6.34;76.04
51289;BME280;37372;52.294;5.152;2024-03-25T08:53:29;100806.06;;;6.29;76.08
51289;BME280;37372;52.294;5.152;2024-03-25T08:55:54;100807.28;;;6.46;75.82
51289;BME280;37372;52.294;5.152;2024-03-25T08:58:20;100804.72;;;6.48;75.99
51289;BME280;37372;52.294;5.152;2024-03-25T09:00:45;100809.28;;;6.60;74.19
51289;BME280;37372;52.294;5.152;2024-03-25T09:03:11;100804.06;;;6.60;73.26
51289;BME280;37372;52.294;5.152;2024-03-25T09:05:37;100802.34;;;6.62;73.79
51289;BME280;37372;52.294;5.152;2024-03-25T09:08:06;100796.50;;;6.75;73.50
51289;BME280;37372;52.294;5.152;2024-03-25T09:10:31;100800.06;;;6.79;71.51
51289;BME280;37372;52.294;5.152;2024-03-25T09:13:15;100799.13;;;6.75;71.39
51289;BME280;37372;52.294;5.152;2024-03-25T09:15:40;100800.19;;;6.87;71.80
51289;BME280;37372;52.294;5.152;2024-03-25T09:18:06;100791.69;;;6.97;73.28
51289;BME280;37372;52.294;5.152;2024-03-25T09:20:31;100791.00;;;7.09;72.44
51289;BME280;37372;52.294;5.152;2024-03-25T09:22:57;100786.78;;;7.17;72.07
51289;BME280;37372;52.294;5.152;2024-03-25T09:25:23;100786.81;;;7.20;72.06
51289;BME280;37372;52.294;5.152;2024-03-25T09:27:50;100782.53;;;7.24;71.32
51289;BME280;37372;52.294;5.152;2024-03-25T09:30:16;100786.88;;;7.23;71.77
51289;BME280;37372;52.294;5.152;2024-03-25T09:32:45;100777.28;;;7.21;71.10
51289;BME280;37372;52.294;5.152;2024-03-25T09:35:10;100784.31;;;7.25;71.97
51289;BME280;37372;52.294;5.152;2024-03-25T09:37:36;100769.59;;;7.31;71.88
51289;BME280;37372;52.294;5.152;2024-03-25T09:40:05;100771.63;;;7.51;71.14
51289;BME280;37372;52.294;5.152;2024-03-25T09:42:37;100776.03;;;7.54;70.10
51289;BME280;37372;52.294;5.152;2024-03-25T09:45:07;100762.31;;;7.70;68.78
51289;BME280;37372;52.294;5.152;2024-03-25T09:47:33;100771.00;;;7.69;69.86
51289;BME280;37372;52.294;5.152;2024-03-25T09:49:59;100770.28;;;7.81;70.06
51289;BME280;37372;52.294;5.152;2024-03-25T09:52:27;100764.41;;;7.97;67.42
51289;BME280;37372;52.294;5.152;2024-03-25T09:54:52;100759.09;;;7.93;68.73
51289;BME280;37372;52.294;5.152;2024-03-25T09:57:18;100760.91;;;7.97;68.58
51289;BME280;37372;52.294;5.152;2024-03-25T09:59:45;100758.50;;;8.15;68.95
51289;BME280;37372;52.294;5.152;2024-03-25T10:02:12;100757.91;;;8.38;68.29
51289;BME280;37372;52.294;5.152;2024-03-25T10:04:45;100757.94;;;8.43;68.16
51289;BME280;37372;52.294;5.152;2024-03-25T10:07:21;100757.16;;;8.47;66.45
51289;BME280;37372;52.294;5.152;2024-03-25T10:09:47;100744.06;;;8.45;65.37
51289;BME280;37372;52.294;5.152;2024-03-25T10:12:12;100741.50;;;8.52;65.88
51289;BME280;37372;52.294;5.152;2024-03-25T10:14:40;100744.13;;;8.52;65.23
51289;BME280;37372;52.294;5.152;2024-03-25T10:17:08;100738.97;;;8.58;65.75
51289;BME280;37372;52.294;5.152;2024-03-25T10:19:34;100737.38;;;8.75;64.65
51289;BME280;37372;52.294;5.152;2024-03-25T10:22:07;100731.38;;;8.90;66.02
51289;BME280;37372;52.294;5.152;2024-03-25T10:24:40;100729.69;;;8.97;66.92
51289;BME280;37372;52.294;5.152;2024-03-25T10:27:20;100719.28;;;9.08;65.18
51289;BME280;37372;52.294;5.152;2024-03-25T10:29:47;100722.84;;;9.16;65.89
51289;BME280;37372;52.294;5.152;2024-03-25T10:32:14;100726.47;;;9.35;67.07
51289;BME280;37372;52.294;5.152;2024-03-25T10:34:40;100719.50;;;9.43;64.06
51289;BME280;37372;52.294;5.152;2024-03-25T10:37:11;100716.94;;;9.46;62.96
51289;BME280;37372;52.294;5.152;2024-03-25T10:39:49;100715.13;;;9.36;63.74
51289;BME280;37372;52.294;5.152;2024-03-25T10:42:19;100704.75;;;9.59;61.59
51289;BME280;37372;52.294;5.152;2024-03-25T10:44:47;100708.25;;;9.63;62.89
51289;BME280;37372;52.294;5.152;2024-03-25T10:47:22;100704.81;;;9.73;61.99
51289;BME280;37372;52.294;5.152;2024-03-25T10:50:07;100700.53;;;9.98;63.18
51289;BME280;37372;52.294;5.152;2024-03-25T10:52:36;100698.81;;;10.07;61.12
51289;BME280;37372;52.294;5.152;2024-03-25T10:55:02;100697.09;;;10.07;60.98
51289;BME280;37372;52.294;5.152;2024-03-25T10:57:28;100699.69;;;10.10;62.31
51289;BME280;37372;52.294;5.152;2024-03-25T10:59:56;100702.31;;;10.13;62.38
51289;BME280;37372;52.294;5.152;2024-03-25T11:02:22;100697.06;;;10.13;60.18
51289;BME280;37372;52.294;5.152;2024-03-25T11:04:57;100691.94;;;10.44;60.40
51289;BME280;37372;52.294;5.152;2024-03-25T11:07:31;100680.56;;;10.52;59.98
51289;BME280;37372;52.294;5.152;2024-03-25T11:10:06;100683.19;;;10.47;57.40
51289;BME280;37372;52.294;5.152;2024-03-25T11:12:37;100678.84;;;10.60;58.12
51289;BME280;37372;52.294;5.152;2024-03-25T11:15:04;100679.69;;;10.43;55.39
51289;BME280;37372;52.294;5.152;2024-03-25T11:17:32;100677.97;;;10.55;55.02
51289;BME280;37372;52.294;5.152;2024-03-25T11:20:15;100672.69;;;10.42;52.90
51289;BME280;37372;52.294;5.152;2024-03-25T11:22:51;100659.56;;;10.39;54.77
51289;BME280;37372;52.294;5.152;2024-03-25T11:25:20;100664.75;;;10.28;55.13
51289;BME280;37372;52.294;5.152;2024-03-25T11:27:49;100656.84;;;10.01;55.45
51289;BME280;37372;52.294;5.152;2024-03-25T11:30:16;100659.47;;;10.01;56.34
51289;BME280;37372;52.294;5.152;2024-03-25T11:32:46;100657.72;;;9.98;55.42
51289;BME280;37372;52.294;5.152;2024-03-25T11:35:12;100655.94;;;9.94;57.82
51289;BME280;37372;52.294;5.152;2024-03-25T11:37:40;100645.47;;;9.98;56.33
51289;BME280;37372;52.294;5.152;2024-03-25T11:42:43;100641.97;;;10.13;55.61
51289;BME280;37372;52.294;5.152;2024-03-25T11:45:16;100636.72;;;10.04;55.42
51289;BME280;37372;52.294;5.152;2024-03-25T11:47:43;100635.88;;;10.16;55.86
51289;BME280;37372;52.294;5.152;2024-03-25T11:50:13;100636.75;;;10.20;53.83
51289;BME280;37372;52.294;5.152;2024-03-25T11:52:39;100625.34;;;9.97;50.37
51289;BME280;37372;52.294;5.152;2024-03-25T11:55:05;100627.13;;;10.06;52.42
51289;BME280;37372;52.294;5.152;2024-03-25T11:57:30;100623.63;;;10.10;51.52
51289;BME280;37372;52.294;5.152;2024-03-25T11:59:57;100622.72;;;10.05;51.97
51289;BME280;37372;52.294;5.152;2024-03-25T12:02:25;100611.38;;;10.14;53.01
51289;BME280;37372;52.294;5.152;2024-03-25T12:04:53;100601.78;;;10.27;51.32
51289;BME280;37372;52.294;5.152;2024-03-25T12:07:22;100600.94;;;10.36;50.70
51289;BME280;37372;52.294;5.152;2024-03-25T12:09:47;100599.13;;;10.24;50.68
51289;BME280;37372;52.294;5.152;2024-03-25T12:12:32;100597.41;;;10.29;50.40
51289;BME280;37372;52.294;5.152;2024-03-25T12:14:58;100594.78;;;10.40;49.94
51289;BME280;37372;52.294;5.152;2024-03-25T12:17:24;100586.91;;;10.18;48.49
51289;BME280;37372;52.294;5.152;2024-03-25T12:20:04;100578.13;;;10.25;49.84
51289;BME280;37372;52.294;5.152;2024-03-25T12:22:34;100579.03;;;10.24;55.42
51289;BME280;37372;52.294;5.152;2024-03-25T12:25:01;100578.13;;;10.16;56.00
51289;BME280;37372;52.294;5.152;2024-03-25T12:27:29;100569.41;;;10.29;58.07
51289;BME280;37372;52.294;5.152;2024-03-25T12:30:08;100567.66;;;10.10;56.15
51289;BME280;37372;52.294;5.152;2024-03-25T12:32:36;100572.91;;;10.10;58.32
51289;BME280;37372;52.294;5.152;2024-03-25T12:35:01;100574.66;;;9.94;57.01
51289;BME280;37372;52.294;5.152;2024-03-25T12:37:28;100584.25;;;9.87;56.92
51289;BME280;37372;52.294;5.152;2024-03-25T12:39:54;100578.97;;;9.86;55.55
51289;BME280;37372;52.294;5.152;2024-03-25T12:42:24;100568.50;;;10.01;55.90
51289;BME280;37372;52.294;5.152;2024-03-25T12:44:51;100579.88;;;9.89;55.81
51289;BME280;37372;52.294;5.152;2024-03-25T12:47:17;100573.72;;;9.76;56.79
51289;BME280;37372;52.294;5.152;2024-03-25T12:49:46;100571.13;;;9.81;56.54
51289;BME280;37372;52.294;5.152;2024-03-25T12:52:11;100562.34;;;9.80;54.63
51289;BME280;37372;52.294;5.152;2024-03-25T12:54:37;100559.72;;;9.65;54.37
51289;BME280;37372;52.294;5.152;2024-03-25T12:57:15;100551.91;;;9.91;54.35
51289;BME280;37372;52.294;5.152;2024-03-25T12:59:43;100555.41;;;10.07;52.93
51289;BME280;37372;52.294;5.152;2024-03-25T13:02:12;100547.53;;;10.21;54.42
51289;BME280;37372;52.294;5.152;2024-03-25T13:04:41;100554.53;;;10.21;53.82